sensor_id;sensor_type;location;lat;lon;timestamp;temperature;humidity
3684;DHT22;1858;48.716;9.648;2022-11-15T00:01:14;11.70;30.60
3684;DHT22;1858;48.716;9.648;2022-11-15T00:03:40;11.70;47.40
3684;DHT22;1858;48.716;9.648;2022-11-15T00:06:09;11.70;59.80
3684;DHT22;1858;48.716;9.648;2022-11-15T00:08:37;11.70;61.40
3684;DHT22;1858;48.716;9.648;2022-11-15T00:11:06;11.60;46.10
3684;DHT22;1858;48.716;9.648;2022-11-15T00:13:34;11.70;39.40
3684;DHT22;1858;48.716;9.648;2022-11-15T00:16:03;11.70;36.30
3684;DHT22;1858;48.716;9.648;2022-11-15T00:18:31;11.70;38.70
3684;DHT22;1858;48.716;9.648;2022-11-15T00:23:54;11.70;50.40
3684;DHT22;1858;48.716;9.648;2022-11-15T00:26:23;11.70;57.10
3684;DHT22;1858;48.716;9.648;2022-11-15T00:28:52;11.60;56.20
3684;DHT22;1858;48.716;9.648;2022-11-15T00:31:20;11.60;54.90
3684;DHT22;1858;48.716;9.648;2022-11-15T00:33:49;11.60;50.00
3684;DHT22;1858;48.716;9.648;2022-11-15T00:36:17;11.70;39.90
3684;DHT22;1858;48.716;9.648;2022-11-15T00:38:46;11.70;26.40
3684;DHT22;1858;48.716;9.648;2022-11-15T00:41:14;11.80;7.00
3684;DHT22;1858;48.716;9.648;2022-11-15T00:43:42;11.80;1.00
3684;DHT22;1858;48.716;9.648;2022-11-15T00:46:11;11.80;1.00
3684;DHT22;1858;48.716;9.648;2022-11-15T00:48:39;11.80;1.00
3684;DHT22;1858;48.716;9.648;2022-11-15T00:51:08;11.90;1.00
3684;DHT22;1858;48.716;9.648;2022-11-15T00:53:36;12.00;1.00
3684;DHT22;1858;48.716;9.648;2022-11-15T00:56:05;12.00;1.00
3684;DHT22;1858;48.716;9.648;2022-11-15T00:58:33;12.00;1.00
3684;DHT22;1858;48.716;9.648;2022-11-15T01:01:21;12.00;1.00
3684;DHT22;1858;48.716;9.648;2022-11-15T01:03:49;12.00;1.00
3684;DHT22;1858;48.716;9.648;2022-11-15T01:06:17;12.10;1.00
3684;DHT22;1858;48.716;9.648;2022-11-15T01:08:46;12.00;1.00
3684;DHT22;1858;48.716;9.648;2022-11-15T01:11:14;11.90;1.00
3684;DHT22;1858;48.716;9.648;2022-11-15T01:13:43;11.90;1.00
3684;DHT22;1858;48.716;9.648;2022-11-15T01:16:13;12.00;1.00
3684;DHT22;1858;48.716;9.648;2022-11-15T01:18:44;12.00;1.00
3684;DHT22;1858;48.716;9.648;2022-11-15T01:21:15;11.90;1.00
3684;DHT22;1858;48.716;9.648;2022-11-15T01:23:44;11.90;1.00
3684;DHT22;1858;48.716;9.648;2022-11-15T01:26:14;11.80;1.00
3684;DHT22;1858;48.716;9.648;2022-11-15T01:28:43;11.80;1.00
3684;DHT22;1858;48.716;9.648;2022-11-15T01:31:14;11.80;1.00
3684;DHT22;1858;48.716;9.648;2022-11-15T01:33:43;11.70;1.00
3684;DHT22;1858;48.716;9.648;2022-11-15T01:36:14;11.60;1.00
3684;DHT22;1858;48.716;9.648;2022-11-15T01:38:43;11.60;1.00
3684;DHT22;1858;48.716;9.648;2022-11-15T01:41:21;11.50;1.00
3684;DHT22;1858;48.716;9.648;2022-11-15T01:43:57;11.60;1.00
3684;DHT22;1858;48.716;9.648;2022-11-15T01:46:34;11.50;1.00
3684;DHT22;1858;48.716;9.648;2022-11-15T01:49:06;11.40;1.00
3684;DHT22;1858;48.716;9.648;2022-11-15T01:51:34;11.40;1.00
3684;DHT22;1858;48.716;9.648;2022-11-15T01:54:06;11.40;1.00
3684;DHT22;1858;48.716;9.648;2022-11-15T01:56:38;11.30;1.00
3684;DHT22;1858;48.716;9.648;2022-11-15T01:59:06;11.20;1.00
3684;DHT22;1858;48.716;9.648;2022-11-15T02:01:55;11.20;1.00
3684;DHT22;1858;48.716;9.648;2022-11-15T02:07:18;11.00;5.60
3684;DHT22;1858;48.716;9.648;2022-11-15T02:09:47;11.00;10.60
3684;DHT22;1858;48.716;9.648;2022-11-15T02:12:18;10.90;10.60
3684;DHT22;1858;48.716;9.648;2022-11-15T02:14:52;10.90;11.40
3684;DHT22;1858;48.716;9.648;2022-11-15T02:17:40;10.80;14.40
3684;DHT22;1858;48.716;9.648;2022-11-15T02:29:05;10.80;18.00
3684;DHT22;1858;48.716;9.648;2022-11-15T02:32:14;10.70;19.30
3684;DHT22;1858;48.716;9.648;2022-11-15T02:43:16;10.60;36.20
3684;DHT22;1858;48.716;9.648;2022-11-15T02:46:12;10.50;50.30
3684;DHT22;1858;48.716;9.648;2022-11-15T02:48:39;10.50;51.80
3684;DHT22;1858;48.716;9.648;2022-11-15T02:51:29;10.50;48.80
3684;DHT22;1858;48.716;9.648;2022-11-15T02:53:57;10.50;50.70
3684;DHT22;1858;48.716;9.648;2022-11-15T02:56:25;10.50;48.10
3684;DHT22;1858;48.716;9.648;2022-11-15T02:59:13;10.50;55.40
3684;DHT22;1858;48.716;9.648;2022-11-15T03:03:05;10.40;52.40
3684;DHT22;1858;48.716;9.648;2022-11-15T03:05:23;10.30;67.60
3684;DHT22;1858;48.716;9.648;2022-11-15T03:10:20;10.30;62.90
3684;DHT22;1858;48.716;9.648;2022-11-15T03:16:02;10.20;75.20
3684;DHT22;1858;48.716;9.648;2022-11-15T03:18:32;10.10;91.90
3684;DHT22;1858;48.716;9.648;2022-11-15T03:21:04;10.20;98.10
3684;DHT22;1858;48.716;9.648;2022-11-15T03:23:33;10.20;92.90
3684;DHT22;1858;48.716;9.648;2022-11-15T03:26:05;10.30;97.80
3684;DHT22;1858;48.716;9.648;2022-11-15T03:31:27;10.40;77.50
3684;DHT22;1858;48.716;9.648;2022-11-15T03:37:22;10.50;64.40
3684;DHT22;1858;48.716;9.648;2022-11-15T03:39:52;10.50;66.60
3684;DHT22;1858;48.716;9.648;2022-11-15T03:42:26;10.40;66.70
3684;DHT22;1858;48.716;9.648;2022-11-15T03:45:11;10.40;61.20
3684;DHT22;1858;48.716;9.648;2022-11-15T03:50:30;10.40;63.80
3684;DHT22;1858;48.716;9.648;2022-11-15T03:52:59;10.40;65.10
3684;DHT22;1858;48.716;9.648;2022-11-15T03:55:28;10.40;65.80
3684;DHT22;1858;48.716;9.648;2022-11-15T03:57:59;10.40;64.80
3684;DHT22;1858;48.716;9.648;2022-11-15T04:00:28;10.40;60.50
3684;DHT22;1858;48.716;9.648;2022-11-15T04:02:57;10.40;55.10
3684;DHT22;1858;48.716;9.648;2022-11-15T04:05:25;10.30;59.50
3684;DHT22;1858;48.716;9.648;2022-11-15T04:07:54;10.30;56.40
3684;DHT22;1858;48.716;9.648;2022-11-15T04:10:22;10.20;62.90
3684;DHT22;1858;48.716;9.648;2022-11-15T04:12:50;10.20;62.20
3684;DHT22;1858;48.716;9.648;2022-11-15T04:15:32;10.20;72.30
3684;DHT22;1858;48.716;9.648;2022-11-15T04:18:01;10.10;61.20
3684;DHT22;1858;48.716;9.648;2022-11-15T04:20:30;10.20;79.10
3684;DHT22;1858;48.716;9.648;2022-11-15T04:26:27;10.10;83.60
3684;DHT22;1858;48.716;9.648;2022-11-15T04:28:56;10.20;77.10
3684;DHT22;1858;48.716;9.648;2022-11-15T04:32:02;10.30;81.30
3684;DHT22;1858;48.716;9.648;2022-11-15T04:34:31;10.30;72.20
3684;DHT22;1858;48.716;9.648;2022-11-15T04:36:59;10.50;49.80
3684;DHT22;1858;48.716;9.648;2022-11-15T04:42:31;10.40;34.10
3684;DHT22;1858;48.716;9.648;2022-11-15T04:45:00;10.50;34.90
3684;DHT22;1858;48.716;9.648;2022-11-15T04:47:28;10.50;20.10
3684;DHT22;1858;48.716;9.648;2022-11-15T04:49:56;10.40;28.30
3684;DHT22;1858;48.716;9.648;2022-11-15T04:52:25;10.40;34.80
3684;DHT22;1858;48.716;9.648;2022-11-15T04:54:53;10.30;38.00
3684;DHT22;1858;48.716;9.648;2022-11-15T04:57:21;10.30;37.80
3684;DHT22;1858;48.716;9.648;2022-11-15T04:59:50;10.30;38.20
3684;DHT22;1858;48.716;9.648;2022-11-15T05:02:18;10.40;33.10
3684;DHT22;1858;48.716;9.648;2022-11-15T05:04:47;10.40;19.30
3684;DHT22;1858;48.716;9.648;2022-11-15T05:07:15;10.40;16.40
3684;DHT22;1858;48.716;9.648;2022-11-15T05:09:43;10.30;14.60
3684;DHT22;1858;48.716;9.648;2022-11-15T05:12:12;10.20;34.90
3684;DHT22;1858;48.716;9.648;2022-11-15T05:14:40;10.20;32.80
3684;DHT22;1858;48.716;9.648;2022-11-15T05:17:28;10.10;33.20
3684;DHT22;1858;48.716;9.648;2022-11-15T05:19:56;10.30;32.50
3684;DHT22;1858;48.716;9.648;2022-11-15T05:22:24;10.20;33.10
3684;DHT22;1858;48.716;9.648;2022-11-15T05:24:53;10.30;33.70
3684;DHT22;1858;48.716;9.648;2022-11-15T05:27:21;10.30;24.00
3684;DHT22;1858;48.716;9.648;2022-11-15T05:30:09;10.50;18.60
3684;DHT22;1858;48.716;9.648;2022-11-15T05:32:37;10.60;14.00
3684;DHT22;1858;48.716;9.648;2022-11-15T05:35:08;10.60;5.60
3684;DHT22;1858;48.716;9.648;2022-11-15T05:37:37;10.50;7.80
3684;DHT22;1858;48.716;9.648;2022-11-15T05:40:25;10.50;14.50
3684;DHT22;1858;48.716;9.648;2022-11-15T05:42:53;10.40;16.40
3684;DHT22;1858;48.716;9.648;2022-11-15T05:45:22;10.20;21.00
3684;DHT22;1858;48.716;9.648;2022-11-15T05:47:51;10.20;33.50
3684;DHT22;1858;48.716;9.648;2022-11-15T05:50:40;10.20;41.50
3684;DHT22;1858;48.716;9.648;2022-11-15T05:53:11;10.10;50.60
3684;DHT22;1858;48.716;9.648;2022-11-15T05:55:59;10.10;45.20
3684;DHT22;1858;48.716;9.648;2022-11-15T05:58:28;10.10;53.50
3684;DHT22;1858;48.716;9.648;2022-11-15T06:00:56;10.10;64.60
3684;DHT22;1858;48.716;9.648;2022-11-15T06:03:24;10.10;56.60
3684;DHT22;1858;48.716;9.648;2022-11-15T06:05:53;10.10;65.40
3684;DHT22;1858;48.716;9.648;2022-11-15T06:08:21;9.90;86.90
3684;DHT22;1858;48.716;9.648;2022-11-15T06:10:49;9.90;99.90
3684;DHT22;1858;48.716;9.648;2022-11-15T06:13:18;9.80;99.90
3684;DHT22;1858;48.716;9.648;2022-11-15T06:15:46;9.80;99.90
3684;DHT22;1858;48.716;9.648;2022-11-15T06:18:15;9.80;99.90
3684;DHT22;1858;48.716;9.648;2022-11-15T06:20:43;9.90;99.90
3684;DHT22;1858;48.716;9.648;2022-11-15T06:23:11;9.90;99.90
3684;DHT22;1858;48.716;9.648;2022-11-15T06:25:40;9.90;99.90
3684;DHT22;1858;48.716;9.648;2022-11-15T06:28:09;9.90;99.90
3684;DHT22;1858;48.716;9.648;2022-11-15T06:30:37;9.90;99.90
3684;DHT22;1858;48.716;9.648;2022-11-15T06:33:05;9.80;99.90
3684;DHT22;1858;48.716;9.648;2022-11-15T06:35:36;9.80;99.90
3684;DHT22;1858;48.716;9.648;2022-11-15T06:40:54;9.70;99.90
3684;DHT22;1858;48.716;9.648;2022-11-15T06:43:22;9.80;99.90
3684;DHT22;1858;48.716;9.648;2022-11-15T06:46:10;9.80;99.90
3684;DHT22;1858;48.716;9.648;2022-11-15T06:48:38;9.80;99.90
3684;DHT22;1858;48.716;9.648;2022-11-15T06:51:08;9.90;99.90
3684;DHT22;1858;48.716;9.648;2022-11-15T06:53:36;10.00;99.90
3684;DHT22;1858;48.716;9.648;2022-11-15T06:59:13;9.90;99.90
3684;DHT22;1858;48.716;9.648;2022-11-15T07:01:41;9.90;99.90
3684;DHT22;1858;48.716;9.648;2022-11-15T07:04:10;9.90;99.90
3684;DHT22;1858;48.716;9.648;2022-11-15T07:06:38;9.90;99.90
3684;DHT22;1858;48.716;9.648;2022-11-15T07:09:07;10.00;99.90
3684;DHT22;1858;48.716;9.648;2022-11-15T07:11:35;9.90;99.90
3684;DHT22;1858;48.716;9.648;2022-11-15T07:14:03;9.80;99.90
3684;DHT22;1858;48.716;9.648;2022-11-15T07:16:32;9.70;99.90
3684;DHT22;1858;48.716;9.648;2022-11-15T07:19:00;9.70;99.90
3684;DHT22;1858;48.716;9.648;2022-11-15T07:21:29;9.80;99.90
3684;DHT22;1858;48.716;9.648;2022-11-15T07:23:57;9.90;99.90
3684;DHT22;1858;48.716;9.648;2022-11-15T07:26:26;10.00;99.90
3684;DHT22;1858;48.716;9.648;2022-11-15T07:28:54;10.10;99.90
3684;DHT22;1858;48.716;9.648;2022-11-15T07:31:22;10.10;99.90
3684;DHT22;1858;48.716;9.648;2022-11-15T07:33:51;10.20;99.90
3684;DHT22;1858;48.716;9.648;2022-11-15T07:36:19;10.30;99.90
3684;DHT22;1858;48.716;9.648;2022-11-15T07:38:48;10.30;99.90
3684;DHT22;1858;48.716;9.648;2022-11-15T07:41:16;10.40;99.90
3684;DHT22;1858;48.716;9.648;2022-11-15T07:44:04;10.50;73.30
3684;DHT22;1858;48.716;9.648;2022-11-15T07:46:32;10.60;75.80
3684;DHT22;1858;48.716;9.648;2022-11-15T07:49:00;10.60;48.70
3684;DHT22;1858;48.716;9.648;2022-11-15T07:51:29;10.70;32.00
3684;DHT22;1858;48.716;9.648;2022-11-15T07:53:58;10.80;29.20
3684;DHT22;1858;48.716;9.648;2022-11-15T07:56:26;10.80;21.00
3684;DHT22;1858;48.716;9.648;2022-11-15T07:58:54;10.70;27.90
3684;DHT22;1858;48.716;9.648;2022-11-15T08:01:23;10.80;34.80
3684;DHT22;1858;48.716;9.648;2022-11-15T08:03:51;10.90;25.70
3684;DHT22;1858;48.716;9.648;2022-11-15T08:06:20;11.00;25.00
3684;DHT22;1858;48.716;9.648;2022-11-15T08:08:49;11.00;17.60
3684;DHT22;1858;48.716;9.648;2022-11-15T08:11:18;11.00;13.20
3684;DHT22;1858;48.716;9.648;2022-11-15T08:13:46;11.00;21.50
3684;DHT22;1858;48.716;9.648;2022-11-15T08:16:15;11.00;14.20
3684;DHT22;1858;48.716;9.648;2022-11-15T08:18:43;11.00;25.40
3684;DHT22;1858;48.716;9.648;2022-11-15T08:21:14;11.10;24.30
3684;DHT22;1858;48.716;9.648;2022-11-15T08:23:43;11.30;19.30
3684;DHT22;1858;48.716;9.648;2022-11-15T08:26:12;11.40;9.60
3684;DHT22;1858;48.716;9.648;2022-11-15T08:28:40;11.40;1.00
3684;DHT22;1858;48.716;9.648;2022-11-15T08:31:17;11.50;1.00
3684;DHT22;1858;48.716;9.648;2022-11-15T08:33:46;11.50;1.00
3684;DHT22;1858;48.716;9.648;2022-11-15T08:36:16;11.50;1.00
3684;DHT22;1858;48.716;9.648;2022-11-15T08:38:45;11.70;1.00
3684;DHT22;1858;48.716;9.648;2022-11-15T08:41:28;11.80;1.00
3684;DHT22;1858;48.716;9.648;2022-11-15T08:43:56;12.00;1.00
3684;DHT22;1858;48.716;9.648;2022-11-15T08:46:38;12.20;1.00
3684;DHT22;1858;48.716;9.648;2022-11-15T08:49:06;12.60;1.00
3684;DHT22;1858;48.716;9.648;2022-11-15T08:51:34;13.00;1.00
3684;DHT22;1858;48.716;9.648;2022-11-15T08:54:03;13.70;1.00
3684;DHT22;1858;48.716;9.648;2022-11-15T08:56:31;14.20;1.00
3684;DHT22;1858;48.716;9.648;2022-11-15T08:59:00;14.50;1.00
3684;DHT22;1858;48.716;9.648;2022-11-15T09:01:28;14.70;1.00
3684;DHT22;1858;48.716;9.648;2022-11-15T09:03:56;14.70;1.00
3684;DHT22;1858;48.716;9.648;2022-11-15T09:06:25;14.80;1.00
3684;DHT22;1858;48.716;9.648;2022-11-15T09:08:53;14.80;1.00
3684;DHT22;1858;48.716;9.648;2022-11-15T09:11:22;14.90;1.00
3684;DHT22;1858;48.716;9.648;2022-11-15T09:13:50;14.90;1.00
3684;DHT22;1858;48.716;9.648;2022-11-15T09:16:19;15.00;1.00
3684;DHT22;1858;48.716;9.648;2022-11-15T09:18:47;15.20;1.00
3684;DHT22;1858;48.716;9.648;2022-11-15T09:21:15;15.10;1.00
3684;DHT22;1858;48.716;9.648;2022-11-15T09:23:44;15.40;1.00
3684;DHT22;1858;48.716;9.648;2022-11-15T09:26:13;15.50;1.00
3684;DHT22;1858;48.716;9.648;2022-11-15T09:28:42;15.70;1.00
3684;DHT22;1858;48.716;9.648;2022-11-15T09:31:10;15.90;1.00
3684;DHT22;1858;48.716;9.648;2022-11-15T09:33:38;16.10;1.00
3684;DHT22;1858;48.716;9.648;2022-11-15T09:36:08;16.30;1.00
3684;DHT22;1858;48.716;9.648;2022-11-15T09:38:37;16.30;1.00
3684;DHT22;1858;48.716;9.648;2022-11-15T09:41:21;16.40;1.00
3684;DHT22;1858;48.716;9.648;2022-11-15T09:46:46;16.90;1.00
3684;DHT22;1858;48.716;9.648;2022-11-15T09:49:31;17.30;1.00
3684;DHT22;1858;48.716;9.648;2022-11-15T09:52:00;17.50;1.00
3684;DHT22;1858;48.716;9.648;2022-11-15T10:00:16;17.60;1.00
3684;DHT22;1858;48.716;9.648;2022-11-15T10:05:29;17.70;1.00
3684;DHT22;1858;48.716;9.648;2022-11-15T10:10:56;17.90;1.00
3684;DHT22;1858;48.716;9.648;2022-11-15T10:13:28;17.90;1.00
3684;DHT22;1858;48.716;9.648;2022-11-15T10:16:04;17.90;1.00
3684;DHT22;1858;48.716;9.648;2022-11-15T10:18:45;17.90;1.00
3684;DHT22;1858;48.716;9.648;2022-11-15T10:21:06;18.00;1.00
3684;DHT22;1858;48.716;9.648;2022-11-15T10:23:32;18.00;1.00
3684;DHT22;1858;48.716;9.648;2022-11-15T10:26:00;18.00;1.00
3684;DHT22;1858;48.716;9.648;2022-11-15T10:28:31;18.00;1.00
3684;DHT22;1858;48.716;9.648;2022-11-15T10:31:00;18.00;1.00
3684;DHT22;1858;48.716;9.648;2022-11-15T10:33:48;17.90;1.00
3684;DHT22;1858;48.716;9.648;2022-11-15T10:36:22;18.00;1.00
3684;DHT22;1858;48.716;9.648;2022-11-15T10:38:55;17.90;1.00
3684;DHT22;1858;48.716;9.648;2022-11-15T10:41:30;17.90;1.00
3684;DHT22;1858;48.716;9.648;2022-11-15T10:44:20;18.10;1.40
3684;DHT22;1858;48.716;9.648;2022-11-15T10:49:52;18.10;1.00
3684;DHT22;1858;48.716;9.648;2022-11-15T10:52:16;18.10;1.00
3684;DHT22;1858;48.716;9.648;2022-11-15T10:54:53;18.10;1.00
3684;DHT22;1858;48.716;9.648;2022-11-15T10:57:27;18.20;1.00
3684;DHT22;1858;48.716;9.648;2022-11-15T10:59:55;18.30;1.00
3684;DHT22;1858;48.716;9.648;2022-11-15T11:02:58;18.40;1.40
3684;DHT22;1858;48.716;9.648;2022-11-15T11:05:33;18.40;1.00
3684;DHT22;1858;48.716;9.648;2022-11-15T11:11:10;18.70;99.90
3684;DHT22;1858;48.716;9.648;2022-11-15T11:13:39;18.70;99.90
3684;DHT22;1858;48.716;9.648;2022-11-15T11:22:12;19.00;99.90
3684;DHT22;1858;48.716;9.648;2022-11-15T11:30:17;18.80;99.90
3684;DHT22;1858;48.716;9.648;2022-11-15T11:33:05;18.70;99.90
3684;DHT22;1858;48.716;9.648;2022-11-15T11:41:26;18.80;99.90
3684;DHT22;1858;48.716;9.648;2022-11-15T11:44:43;18.80;99.90
3684;DHT22;1858;48.716;9.648;2022-11-15T11:51:56;18.40;1.00
3684;DHT22;1858;48.716;9.648;2022-11-15T11:57:05;18.40;1.00
3684;DHT22;1858;48.716;9.648;2022-11-15T11:59:50;18.40;1.00
3684;DHT22;1858;48.716;9.648;2022-11-15T12:02:33;18.10;1.00
3684;DHT22;1858;48.716;9.648;2022-11-15T12:07:49;18.30;1.00
3684;DHT22;1858;48.716;9.648;2022-11-15T12:13:16;18.50;1.00
3684;DHT22;1858;48.716;9.648;2022-11-15T12:16:12;18.60;1.00
3684;DHT22;1858;48.716;9.648;2022-11-15T12:18:31;18.70;1.00
3684;DHT22;1858;48.716;9.648;2022-11-15T12:21:03;18.80;1.00
3684;DHT22;1858;48.716;9.648;2022-11-15T12:23:52;18.80;1.00
3684;DHT22;1858;48.716;9.648;2022-11-15T12:26:26;18.80;1.00
3684;DHT22;1858;48.716;9.648;2022-11-15T12:29:19;18.70;1.00
3684;DHT22;1858;48.716;9.648;2022-11-15T12:31:49;18.80;1.00
3684;DHT22;1858;48.716;9.648;2022-11-15T12:34:43;18.90;1.00
3684;DHT22;1858;48.716;9.648;2022-11-15T12:37:46;18.80;99.90
3684;DHT22;1858;48.716;9.648;2022-11-15T12:54:52;18.70;99.90
3684;DHT22;1858;48.716;9.648;2022-11-15T12:57:26;18.70;99.90
3684;DHT22;1858;48.716;9.648;2022-11-15T13:02:49;18.70;1.00
3684;DHT22;1858;48.716;9.648;2022-11-15T13:05:52;18.70;1.00
3684;DHT22;1858;48.716;9.648;2022-11-15T13:07:57;18.60;1.00
3684;DHT22;1858;48.716;9.648;2022-11-15T13:13:16;18.60;1.00
3684;DHT22;1858;48.716;9.648;2022-11-15T13:15:55;18.60;1.00
3684;DHT22;1858;48.716;9.648;2022-11-15T13:20:55;18.60;1.00
3684;DHT22;1858;48.716;9.648;2022-11-15T13:23:24;18.60;1.00
3684;DHT22;1858;48.716;9.648;2022-11-15T13:28:45;18.60;1.00
3684;DHT22;1858;48.716;9.648;2022-11-15T13:31:41;18.50;1.00
3684;DHT22;1858;48.716;9.648;2022-11-15T13:37:36;18.30;1.00
3684;DHT22;1858;48.716;9.648;2022-11-15T13:39:44;18.20;1.00
3684;DHT22;1858;48.716;9.648;2022-11-15T13:42:19;18.10;1.00
3684;DHT22;1858;48.716;9.648;2022-11-15T13:45:12;18.00;1.00
3684;DHT22;1858;48.716;9.648;2022-11-15T13:47:39;18.00;1.00
3684;DHT22;1858;48.716;9.648;2022-11-15T13:50:28;18.00;1.00
3684;DHT22;1858;48.716;9.648;2022-11-15T13:52:58;18.00;1.00
3684;DHT22;1858;48.716;9.648;2022-11-15T13:55:30;18.00;1.00
3684;DHT22;1858;48.716;9.648;2022-11-15T13:58:03;17.90;1.00
3684;DHT22;1858;48.716;9.648;2022-11-15T14:01:01;17.90;1.00
3684;DHT22;1858;48.716;9.648;2022-11-15T14:03:35;17.80;1.00
3684;DHT22;1858;48.716;9.648;2022-11-15T14:06:06;17.70;1.00
3684;DHT22;1858;48.716;9.648;2022-11-15T14:08:35;17.60;1.00
3684;DHT22;1858;48.716;9.648;2022-11-15T14:11:18;17.60;1.00
3684;DHT22;1858;48.716;9.648;2022-11-15T14:13:39;17.50;1.00
3684;DHT22;1858;48.716;9.648;2022-11-15T14:16:16;17.50;1.00
3684;DHT22;1858;48.716;9.648;2022-11-15T14:18:52;17.40;1.00
3684;DHT22;1858;48.716;9.648;2022-11-15T14:21:21;17.40;1.00
3684;DHT22;1858;48.716;9.648;2022-11-15T14:23:49;17.40;1.00
3684;DHT22;1858;48.716;9.648;2022-11-15T14:26:30;17.30;1.00
3684;DHT22;1858;48.716;9.648;2022-11-15T14:29:27;17.30;1.00
3684;DHT22;1858;48.716;9.648;2022-11-15T14:32:18;17.30;1.00
3684;DHT22;1858;48.716;9.648;2022-11-15T14:34:49;17.20;1.00
3684;DHT22;1858;48.716;9.648;2022-11-15T14:40:16;17.10;1.00
3684;DHT22;1858;48.716;9.648;2022-11-15T14:42:47;17.00;1.00
3684;DHT22;1858;48.716;9.648;2022-11-15T14:45:18;17.00;1.00
3684;DHT22;1858;48.716;9.648;2022-11-15T14:47:55;16.90;1.00
3684;DHT22;1858;48.716;9.648;2022-11-15T14:50:23;16.70;1.00
3684;DHT22;1858;48.716;9.648;2022-11-15T14:52:52;16.70;1.00
3684;DHT22;1858;48.716;9.648;2022-11-15T14:55:38;16.70;1.00
3684;DHT22;1858;48.716;9.648;2022-11-15T14:58:07;16.60;1.00
3684;DHT22;1858;48.716;9.648;2022-11-15T15:00:37;16.60;1.00
3684;DHT22;1858;48.716;9.648;2022-11-15T15:03:09;16.50;1.00
3684;DHT22;1858;48.716;9.648;2022-11-15T15:05:44;16.50;1.00
3684;DHT22;1858;48.716;9.648;2022-11-15T15:08:12;16.40;1.00
3684;DHT22;1858;48.716;9.648;2022-11-15T15:10:51;16.40;1.00
3684;DHT22;1858;48.716;9.648;2022-11-15T15:13:28;16.30;1.00
3684;DHT22;1858;48.716;9.648;2022-11-15T15:15:57;16.20;1.00
3684;DHT22;1858;48.716;9.648;2022-11-15T15:18:26;16.20;1.00
3684;DHT22;1858;48.716;9.648;2022-11-15T15:20:57;16.10;1.00
3684;DHT22;1858;48.716;9.648;2022-11-15T15:23:27;16.10;1.00
3684;DHT22;1858;48.716;9.648;2022-11-15T15:25:58;16.00;1.00
3684;DHT22;1858;48.716;9.648;2022-11-15T15:28:26;16.00;1.00
3684;DHT22;1858;48.716;9.648;2022-11-15T15:30:55;15.80;1.00
3684;DHT22;1858;48.716;9.648;2022-11-15T15:33:23;15.60;1.00
3684;DHT22;1858;48.716;9.648;2022-11-15T15:35:52;15.70;1.00
3684;DHT22;1858;48.716;9.648;2022-11-15T15:38:20;15.50;1.00
3684;DHT22;1858;48.716;9.648;2022-11-15T15:40:49;15.60;1.00
3684;DHT22;1858;48.716;9.648;2022-11-15T15:43:18;15.50;1.00
3684;DHT22;1858;48.716;9.648;2022-11-15T15:46:09;15.50;1.00
3684;DHT22;1858;48.716;9.648;2022-11-15T15:48:38;15.30;1.00
3684;DHT22;1858;48.716;9.648;2022-11-15T15:51:07;15.30;1.00
3684;DHT22;1858;48.716;9.648;2022-11-15T15:53:36;15.00;1.00
3684;DHT22;1858;48.716;9.648;2022-11-15T15:56:04;14.90;1.00
3684;DHT22;1858;48.716;9.648;2022-11-15T15:58:54;15.00;1.00
3684;DHT22;1858;48.716;9.648;2022-11-15T16:01:22;15.00;1.00
3684;DHT22;1858;48.716;9.648;2022-11-15T16:03:52;14.80;1.00
3684;DHT22;1858;48.716;9.648;2022-11-15T16:09:16;14.70;1.00
3684;DHT22;1858;48.716;9.648;2022-11-15T16:11:46;14.60;1.00
3684;DHT22;1858;48.716;9.648;2022-11-15T16:14:15;14.70;1.00
3684;DHT22;1858;48.716;9.648;2022-11-15T16:16:43;14.50;1.00
3684;DHT22;1858;48.716;9.648;2022-11-15T16:19:12;14.50;1.00
3684;DHT22;1858;48.716;9.648;2022-11-15T16:21:40;14.30;1.00
3684;DHT22;1858;48.716;9.648;2022-11-15T16:24:08;14.30;1.00
3684;DHT22;1858;48.716;9.648;2022-11-15T16:26:37;14.10;1.00
3684;DHT22;1858;48.716;9.648;2022-11-15T16:29:07;14.10;1.00
3684;DHT22;1858;48.716;9.648;2022-11-15T16:31:36;14.00;1.00
3684;DHT22;1858;48.716;9.648;2022-11-15T16:34:05;13.90;1.00
3684;DHT22;1858;48.716;9.648;2022-11-15T16:36:40;13.80;1.00
3684;DHT22;1858;48.716;9.648;2022-11-15T16:39:12;13.80;1.00
3684;DHT22;1858;48.716;9.648;2022-11-15T16:41:59;13.70;1.00
3684;DHT22;1858;48.716;9.648;2022-11-15T16:44:28;13.70;1.00
3684;DHT22;1858;48.716;9.648;2022-11-15T16:46:56;13.50;1.00
3684;DHT22;1858;48.716;9.648;2022-11-15T16:49:24;13.50;1.00
3684;DHT22;1858;48.716;9.648;2022-11-15T16:51:53;13.50;1.00
3684;DHT22;1858;48.716;9.648;2022-11-15T16:54:21;13.30;1.00
3684;DHT22;1858;48.716;9.648;2022-11-15T16:56:50;13.30;1.00
3684;DHT22;1858;48.716;9.648;2022-11-15T16:59:37;13.30;1.00
3684;DHT22;1858;48.716;9.648;2022-11-15T17:02:10;13.30;1.00
3684;DHT22;1858;48.716;9.648;2022-11-15T17:04:37;13.20;1.00
3684;DHT22;1858;48.716;9.648;2022-11-15T17:07:07;13.10;1.00
3684;DHT22;1858;48.716;9.648;2022-11-15T17:09:37;12.90;77.50
3684;DHT22;1858;48.716;9.648;2022-11-15T17:12:05;12.80;99.90
3684;DHT22;1858;48.716;9.648;2022-11-15T17:14:34;12.60;99.90
3684;DHT22;1858;48.716;9.648;2022-11-15T17:17:22;12.50;99.90
3684;DHT22;1858;48.716;9.648;2022-11-15T17:19:53;12.50;99.90
3684;DHT22;1858;48.716;9.648;2022-11-15T17:22:22;12.40;99.90
3684;DHT22;1858;48.716;9.648;2022-11-15T17:24:50;12.30;99.90
3684;DHT22;1858;48.716;9.648;2022-11-15T17:27:19;12.10;99.90
3684;DHT22;1858;48.716;9.648;2022-11-15T17:29:48;12.00;99.90
3684;DHT22;1858;48.716;9.648;2022-11-15T17:32:16;11.90;99.90
3684;DHT22;1858;48.716;9.648;2022-11-15T17:34:45;12.00;1.00
3684;DHT22;1858;48.716;9.648;2022-11-15T17:37:13;11.90;1.00
3684;DHT22;1858;48.716;9.648;2022-11-15T17:39:41;11.90;1.00
3684;DHT22;1858;48.716;9.648;2022-11-15T17:42:10;11.80;1.00
3684;DHT22;1858;48.716;9.648;2022-11-15T17:44:38;11.80;1.00
3684;DHT22;1858;48.716;9.648;2022-11-15T17:47:06;11.90;1.00
3684;DHT22;1858;48.716;9.648;2022-11-15T17:49:35;11.80;1.00
3684;DHT22;1858;48.716;9.648;2022-11-15T17:52:05;11.90;1.00
3684;DHT22;1858;48.716;9.648;2022-11-15T17:54:34;11.80;1.00
3684;DHT22;1858;48.716;9.648;2022-11-15T17:57:03;11.80;1.00
3684;DHT22;1858;48.716;9.648;2022-11-15T17:59:34;11.80;1.00
3684;DHT22;1858;48.716;9.648;2022-11-15T18:02:03;11.90;1.00
3684;DHT22;1858;48.716;9.648;2022-11-15T18:04:32;11.90;1.00
3684;DHT22;1858;48.716;9.648;2022-11-15T18:07:01;12.00;1.00
3684;DHT22;1858;48.716;9.648;2022-11-15T18:09:29;12.10;1.00
3684;DHT22;1858;48.716;9.648;2022-11-15T18:12:05;12.20;1.00
3684;DHT22;1858;48.716;9.648;2022-11-15T18:14:33;12.30;1.00
3684;DHT22;1858;48.716;9.648;2022-11-15T18:17:02;12.30;99.90
3684;DHT22;1858;48.716;9.648;2022-11-15T18:19:30;12.30;99.90
3684;DHT22;1858;48.716;9.648;2022-11-15T18:21:59;12.30;99.90
3684;DHT22;1858;48.716;9.648;2022-11-15T18:27:20;12.50;99.90
3684;DHT22;1858;48.716;9.648;2022-11-15T18:29:48;12.40;99.90
3684;DHT22;1858;48.716;9.648;2022-11-15T18:32:16;12.40;99.90
3684;DHT22;1858;48.716;9.648;2022-11-15T18:34:45;12.50;99.90
3684;DHT22;1858;48.716;9.648;2022-11-15T18:37:22;12.50;99.90
3684;DHT22;1858;48.716;9.648;2022-11-15T18:39:51;12.60;99.90
3684;DHT22;1858;48.716;9.648;2022-11-15T18:42:20;12.50;99.90
3684;DHT22;1858;48.716;9.648;2022-11-15T18:44:48;12.70;99.90
3684;DHT22;1858;48.716;9.648;2022-11-15T18:47:17;12.70;99.90
3684;DHT22;1858;48.716;9.648;2022-11-15T18:49:45;12.60;99.90
3684;DHT22;1858;48.716;9.648;2022-11-15T18:52:13;12.60;99.90
3684;DHT22;1858;48.716;9.648;2022-11-15T18:54:42;12.70;99.90
3684;DHT22;1858;48.716;9.648;2022-11-15T18:57:10;12.70;99.90
3684;DHT22;1858;48.716;9.648;2022-11-15T18:59:38;12.60;99.90
3684;DHT22;1858;48.716;9.648;2022-11-15T19:02:11;12.50;99.90